Time;durP1;ratioP1;P1;durP2;ratioP2;P2;SDS_P1;SDS_P2;PMS_P1;PMS_P2;Temp;Humidity;BMP_temperature;BMP_pressure;BME280_temperature;BME280_humidity;BME280_pressure;Samples;Min_cycle;Max_cycle;Signal;HPM_P1;HPM_P2
2023/02/09 00:03:27;;;;;;;16.95;11.88;;;;;;;;;;10020136;28;20080;-59
2023/02/09 00:08:21;;;;;;;13.45;9.00;;;;;;;;;;10030078;28;20064;-59
2023/02/09 00:13:23;;;;;;;14.35;10.02;;;;;;;;;;10030887;28;20037;-60
2023/02/09 00:18:17;;;;;;;12.95;10.02;;;;;;;;;;10030819;28;20096;-59
2023/02/09 00:23:11;;;;;;;18.92;9.73;;;;;;;;;;10030367;28;20057;-60
2023/02/09 00:28:06;;;;;;;12.18;8.98;;;;;;;;;;10028227;28;20054;-60
2023/02/09 00:32:59;;;;;;;12.00;8.77;;;;;;;;;;10030166;28;20069;-60
2023/02/09 00:37:53;;;;;;;14.23;9.75;;;;;;;;;;10027800;28;20050;-60
2023/02/09 00:42:46;;;;;;;12.75;9.15;;;;;;;;;;10013002;28;20462;-60
2023/02/09 00:47:39;;;;;;;14.50;10.40;;;;;;;;;;10022182;28;20069;-60
2023/02/09 00:52:33;;;;;;;11.65;9.32;;;;;;;;;;10029262;28;20054;-60
2023/02/09 00:57:27;;;;;;;13.00;9.23;;;;;;;;;;10027519;28;20085;-60
2023/02/09 01:02:20;;;;;;;13.20;8.70;;;;;;;;;;10028975;28;20580;-59
2023/02/09 01:07:12;;;;;;;13.52;9.93;;;;;;;;;;10028535;28;20084;-60
2023/02/09 01:12:06;;;;;;;12.93;10.50;;;;;;;;;;10027790;28;20037;-59
2023/02/09 01:16:58;;;;;;;14.30;10.00;;;;;;;;;;10029483;28;20050;-59
2023/02/09 01:21:52;;;;;;;12.27;9.65;;;;;;;;;;10028595;28;20052;-59
2023/02/09 01:26:45;;;;;;;15.38;10.35;;;;;;;;;;10028363;28;20042;-60
2023/02/09 01:31:38;;;;;;;14.52;10.55;;;;;;;;;;10027836;28;20140;-60
2023/02/09 01:36:33;;;;;;;14.07;10.70;;;;;;;;;;10025784;28;20053;-60
2023/02/09 01:41:26;;;;;;;19.95;11.10;;;;;;;;;;10027607;28;20043;-60
2023/02/09 01:46:21;;;;;;;13.23;10.07;;;;;;;;;;10027651;28;20058;-60
2023/02/09 01:51:15;;;;;;;12.45;9.50;;;;;;;;;;10025942;28;20503;-60
2023/02/09 01:56:11;;;;;;;12.32;10.13;;;;;;;;;;10025559;28;20096;-60
2023/02/09 02:01:04;;;;;;;13.75;11.18;;;;;;;;;;10003007;28;20440;-60
2023/02/09 02:06:23;;;;;;;14.15;10.98;;;;;;;;;;10025106;28;20046;-59
2023/02/09 02:11:17;;;;;;;11.48;9.27;;;;;;;;;;10024502;28;20062;-59
2023/02/09 02:16:10;;;;;;;12.63;9.77;;;;;;;;;;10027272;28;20038;-60
2023/02/09 02:21:12;;;;;;;15.07;11.38;;;;;;;;;;10024778;28;20046;-59
2023/02/09 02:26:16;;;;;;;17.33;10.35;;;;;;;;;;10016470;28;20046;-59
2023/02/09 02:31:56;;;;;;;15.82;9.52;;;;;;;;;;10008122;28;20450;-59
2023/02/09 02:37:16;;;;;;;12.70;10.75;;;;;;;;;;10008818;28;20092;-59
2023/02/09 02:42:47;;;;;;;15.55;11.40;;;;;;;;;;10019865;28;20053;-60
2023/02/09 02:47:40;;;;;;;;;;;;;;;;;;10025519;28;20128;-60
2023/02/09 02:52:34;;;;;;;13.27;9.68;;;;;;;;;;10032063;28;20447;-59
2023/02/09 02:57:31;;;;;;;18.27;11.60;;;;;;;;;;10034075;28;20056;-60
2023/02/09 03:02:29;;;;;;;12.93;10.25;;;;;;;;;;10032827;28;20054;-59
2023/02/09 03:07:22;;;;;;;13.45;10.23;;;;;;;;;;10033203;28;20050;-59
2023/02/09 03:12:48;;;;;;;13.50;11.15;;;;;;;;;;10025477;28;20053;-59
2023/02/09 03:17:47;;;;;;;12.38;10.10;;;;;;;;;;10017779;28;20162;-59
2023/02/09 03:22:42;;;;;;;16.27;11.60;;;;;;;;;;10031540;28;20125;-59
2023/02/09 03:27:42;;;;;;;15.68;12.70;;;;;;;;;;10030233;28;20049;-59
2023/02/09 03:32:40;;;;;;;13.18;10.95;;;;;;;;;;10030612;28;20395;-59
2023/02/09 03:37:39;;;;;;;14.57;9.93;;;;;;;;;;10030614;28;20490;-59
2023/02/09 03:42:32;;;;;;;15.45;10.48;;;;;;;;;;10031263;28;20154;-59
2023/02/09 03:47:26;;;;;;;14.07;10.88;;;;;;;;;;10029865;28;20069;-59
2023/02/09 03:52:19;;;;;;;14.13;10.88;;;;;;;;;;10026470;28;20529;-59
2023/02/09 03:57:12;;;;;;;17.52;11.70;;;;;;;;;;10030022;28;20050;-60
2023/02/09 04:02:06;;;;;;;14.55;11.35;;;;;;;;;;10027445;28;20050;-59
2023/02/09 04:06:59;;;;;;;13.60;10.77;;;;;;;;;;10022312;28;20132;-59
2023/02/09 04:11:53;;;;;;;13.68;11.10;;;;;;;;;;10031222;28;20058;-59
2023/02/09 04:16:48;;;;;;;18.75;12.82;;;;;;;;;;10018721;28;20132;-60
2023/02/09 04:21:41;;;;;;;15.48;11.55;;;;;;;;;;10029930;28;20054;-60
2023/02/09 04:26:35;;;;;;;16.63;12.05;;;;;;;;;;10005811;28;20523;-59
2023/02/09 04:31:29;;;;;;;15.18;11.75;;;;;;;;;;10024104;28;20054;-59
2023/02/09 04:36:23;;;;;;;16.38;11.32;;;;;;;;;;10010679;28;20057;-59
2023/02/09 04:41:16;;;;;;;15.73;11.60;;;;;;;;;;10008133;28;20069;-59
2023/02/09 04:46:13;;;;;;;17.13;12.18;;;;;;;;;;10018901;28;20050;-59
2023/02/09 04:51:07;;;;;;;15.20;10.35;;;;;;;;;;10016417;28;20077;-59
2023/02/09 04:56:00;;;;;;;14.30;10.90;;;;;;;;;;10029310;28;20414;-59
2023/02/09 05:00:55;;;;;;;16.45;11.63;;;;;;;;;;10028804;28;20058;-59
2023/02/09 05:05:49;;;;;;;14.77;11.15;;;;;;;;;;10028306;28;20388;-59
2023/02/09 05:10:43;;;;;;;16.52;11.30;;;;;;;;;;10027381;28;20050;-59
2023/02/09 05:15:37;;;;;;;15.50;12.60;;;;;;;;;;10029195;28;20053;-59
2023/02/09 05:20:31;;;;;;;17.35;12.55;;;;;;;;;;10010577;28;20053;-59
2023/02/09 05:25:24;;;;;;;18.65;11.18;;;;;;;;;;10028035;28;20457;-59
2023/02/09 05:30:19;;;;;;;18.65;13.02;;;;;;;;;;10015212;28;20092;-60
2023/02/09 05:35:13;;;;;;;17.60;13.27;;;;;;;;;;10004635;28;20133;-60
2023/02/09 05:40:08;;;;;;;15.15;12.05;;;;;;;;;;10016119;28;20124;-60
2023/02/09 05:45:01;;;;;;;15.57;10.60;;;;;;;;;;10015311;28;20054;-60
2023/02/09 05:49:56;;;;;;;15.98;12.32;;;;;;;;;;10010689;28;20637;-60
2023/02/09 05:54:48;;;;;;;13.95;10.85;;;;;;;;;;10020830;28;20054;-60
2023/02/09 05:59:42;;;;;;;13.18;11.35;;;;;;;;;;10007292;28;20417;-60
2023/02/09 06:04:36;;;;;;;21.60;14.73;;;;;;;;;;10010199;28;20112;-60
2023/02/09 06:09:29;;;;;;;17.52;12.32;;;;;;;;;;10011940;28;20095;-60
2023/02/09 06:14:23;;;;;;;16.50;12.35;;;;;;;;;;10001640;28;20104;-59
2023/02/09 06:19:19;;;;;;;24.73;13.30;;;;;;;;;;10013584;28;20054;-59
2023/02/09 06:24:15;;;;;;;15.20;13.05;;;;;;;;;;10009247;28;20528;-60
2023/02/09 06:29:09;;;;;;;18.33;12.02;;;;;;;;;;10011070;28;20057;-58
2023/02/09 06:34:02;;;;;;;14.55;11.18;;;;;;;;;;10024689;28;20048;-58
2023/02/09 06:38:55;;;;;;;19.05;13.18;;;;;;;;;;10021538;28;20604;-59
2023/02/09 06:43:48;;;;;;;16.90;11.77;;;;;;;;;;10008633;28;20042;-58
2023/02/09 06:48:41;;;;;;;14.93;13.10;;;;;;;;;;10021696;28;20112;-58
2023/02/09 06:53:36;;;;;;;15.82;12.15;;;;;;;;;;10022115;28;20042;-58
2023/02/09 06:58:29;;;;;;;16.50;12.02;;;;;;;;;;10025010;28;20137;-58
2023/02/09 07:03:22;;;;;;;21.00;13.13;;;;;;;;;;10024931;28;20056;-59
2023/02/09 07:08:15;;;;;;;19.42;12.82;;;;;;;;;;10024594;28;20125;-58
2023/02/09 07:13:08;;;;;;;19.80;12.13;;;;;;;;;;10019155;28;20053;-59
2023/02/09 07:18:06;;;;;;;18.95;13.88;;;;;;;;;;10023332;28;20057;-58
2023/02/09 07:23:00;;;;;;;26.67;13.23;;;;;;;;;;10024443;28;20123;-58
2023/02/09 07:27:54;;;;;;;18.30;13.27;;;;;;;;;;10023712;28;20125;-58
2023/02/09 07:32:48;;;;;;;19.00;13.65;;;;;;;;;;10024139;28;20606;-58
2023/02/09 07:37:41;;;;;;;18.63;13.20;;;;;;;;;;10032002;28;20050;-58
2023/02/09 07:42:34;;;;;;;17.80;12.35;;;;;;;;;;10031510;28;20129;-58
2023/02/09 07:47:28;;;;;;;22.27;14.25;;;;;;;;;;10028817;28;20057;-58
2023/02/09 07:52:21;;;;;;;19.25;13.65;;;;;;;;;;10029434;28;20045;-58
2023/02/09 07:57:15;;;;;;;17.20;12.40;;;;;;;;;;10029788;28;20643;-58
2023/02/09 08:02:27;;;;;;;17.48;13.35;;;;;;;;;;10030002;28;20053;-58
2023/02/09 08:07:21;;;;;;;22.55;16.45;;;;;;;;;;10029206;28;20056;-58
2023/02/09 08:12:15;;;;;;;22.17;14.02;;;;;;;;;;10029240;28;20080;-58
2023/02/09 08:17:23;;;;;;;18.35;12.68;;;;;;;;;;10029411;28;20088;-58
2023/02/09 08:22:16;;;;;;;19.05;13.05;;;;;;;;;;10024512;28;20514;-59
2023/02/09 08:27:08;;;;;;;15.90;12.57;;;;;;;;;;10028127;28;20057;-58
2023/02/09 08:32:01;;;;;;;18.55;13.40;;;;;;;;;;10028148;28;20080;-59
2023/02/09 08:36:55;;;;;;;17.88;13.85;;;;;;;;;;10029257;28;20054;-59
2023/02/09 08:41:48;;;;;;;17.25;12.50;;;;;;;;;;10029063;28;20533;-58
2023/02/09 08:46:41;;;;;;;15.25;11.98;;;;;;;;;;10028705;28;20046;-58
2023/02/09 08:51:36;;;;;;;15.88;11.60;;;;;;;;;;10024833;28;20192;-58
2023/02/09 08:56:29;;;;;;;20.42;12.70;;;;;;;;;;10028446;28;20507;-59
2023/02/09 09:01:23;;;;;;;18.02;12.68;;;;;;;;;;10028677;28;20552;-58
2023/02/09 09:06:17;;;;;;;18.17;12.57;;;;;;;;;;10028131;28;20050;-58
2023/02/09 09:11:11;;;;;;;15.45;11.90;;;;;;;;;;10028250;28;20123;-59
2023/02/09 09:16:06;;;;;;;18.48;11.88;;;;;;;;;;10027404;28;20475;-59
2023/02/09 09:21:00;;;;;;;16.30;13.00;;;;;;;;;;10028146;28;20088;-59
2023/02/09 09:25:52;;;;;;;17.88;11.63;;;;;;;;;;10025954;28;20045;-59
2023/02/09 09:30:46;;;;;;;15.68;11.85;;;;;;;;;;10027046;28;20062;-59
2023/02/09 09:35:39;;;;;;;16.33;11.15;;;;;;;;;;10026409;28;20049;-59
2023/02/09 09:40:36;;;;;;;15.43;11.82;;;;;;;;;;10024346;28;20446;-59
2023/02/09 09:45:30;;;;;;;16.80;12.15;;;;;;;;;;10024285;28;20067;-59
2023/02/09 09:50:25;;;;;;;14.95;11.32;;;;;;;;;;10018508;28;20049;-59
2023/02/09 09:55:25;;;;;;;14.77;11.55;;;;;;;;;;10013072;28;20100;-59
2023/02/09 10:00:38;;;;;;;14.30;11.07;;;;;;;;;;10016210;28;20088;-59
2023/02/09 10:05:38;;;;;;;16.52;10.80;;;;;;;;;;10006709;28;20054;-59
2023/02/09 10:10:38;;;;;;;16.67;10.60;;;;;;;;;;10020194;28;20077;-59
2023/02/09 10:15:36;;;;;;;16.52;13.02;;;;;;;;;;10008605;28;20065;-59
2023/02/09 10:20:49;;;;;;;19.03;11.80;;;;;;;;;;10002918;28;20065;-59
2023/02/09 10:25:59;;;;;;;16.00;11.23;;;;;;;;;;10014920;28;20050;-59
2023/02/09 10:30:54;;;;;;;16.08;12.48;;;;;;;;;;10009858;28;20111;-58
2023/02/09 10:35:53;;;;;;;13.73;11.77;;;;;;;;;;9996453;28;20068;-58
2023/02/09 10:40:46;;;;;;;21.38;12.38;;;;;;;;;;10020918;28;20046;-59
2023/02/09 10:45:43;;;;;;;17.10;11.88;;;;;;;;;;10024765;28;20050;-59
2023/02/09 10:51:16;;;;;;;17.02;13.07;;;;;;;;;;10024666;28;20129;-58
2023/02/09 10:56:18;;;;;;;15.60;11.60;;;;;;;;;;9966980;28;20450;-59
2023/02/09 11:01:17;;;;;;;15.60;11.00;;;;;;;;;;9999256;28;20045;-58
2023/02/09 11:06:18;;;;;;;17.80;11.57;;;;;;;;;;10002064;28;20063;-59
2023/02/09 11:11:28;;;;;;;17.70;12.20;;;;;;;;;;10013821;28;20049;-59
2023/02/09 11:16:49;;;;;;;16.30;11.98;;;;;;;;;;10039703;28;20049;-60
2023/02/09 11:21:52;;;;;;;17.67;12.18;;;;;;;;;;10029964;28;20387;-74
2023/02/09 11:27:06;;;;;;;15.23;13.25;;;;;;;;;;10021081;28;20133;-73
2023/02/09 11:32:05;;;;;;;17.60;11.50;;;;;;;;;;10020545;28;20054;-72
2023/02/09 11:37:05;;;;;;;16.92;12.57;;;;;;;;;;10017459;28;20042;-73
2023/02/09 11:47:27;;;;;;;18.38;13.07;;;;;;;;;;10031504;28;20057;-76
2023/02/09 11:52:39;;;;;;;17.45;12.55;;;;;;;;;;10023865;28;20454;-71
2023/02/09 11:57:38;;;;;;;16.35;12.60;;;;;;;;;;10010345;28;20054;-73
2023/02/09 12:02:56;;;;;;;20.30;13.25;;;;;;;;;;10019598;28;20054;-73
2023/02/09 12:08:15;;;;;;;16.88;12.98;;;;;;;;;;10000846;28;20042;-70
2023/02/09 12:13:23;;;;;;;19.75;13.15;;;;;;;;;;10026665;28;20572;-73
2023/02/09 12:18:20;;;;;;;18.98;12.55;;;;;;;;;;10028647;28;20046;-70
2023/02/09 12:23:32;;;;;;;17.15;13.50;;;;;;;;;;10018078;28;20070;-69
2023/02/09 12:28:31;;;;;;;18.25;13.32;;;;;;;;;;10021853;28;20056;-71
2023/02/09 12:33:23;;;;;;;17.43;12.37;;;;;;;;;;10012084;28;20050;-72
2023/02/09 12:38:18;;;;;;;17.73;14.52;;;;;;;;;;10018861;28;20419;-75
2023/02/09 12:43:25;;;;;;;20.20;14.25;;;;;;;;;;10013234;28;20121;-70
2023/02/09 12:48:18;;;;;;;20.67;13.77;;;;;;;;;;10017715;28;20096;-72
2023/02/09 12:53:23;;;;;;;16.42;13.05;;;;;;;;;;10005355;28;20485;-74
2023/02/09 12:59:10;;;;;;;37.03;29.10;;;;;;;;;;10003906;28;20051;-72
2023/02/09 13:04:06;;;;;;;23.88;17.63;;;;;;;;;;10007156;28;20474;-67
2023/02/09 13:09:02;;;;;;;;;;;;;;;;;;10018742;28;20047;-68
2023/02/09 13:14:01;;;;;;;16.63;13.88;;;;;;;;;;10004990;28;19925;-68
2023/02/09 13:19:23;;;;;;;35.40;14.50;;;;;;;;;;10011831;28;20041;-67
2023/02/09 13:24:21;;;;;;;22.77;17.08;;;;;;;;;;10023289;28;20104;-68
2023/02/09 13:29:17;;;;;;;21.58;16.13;;;;;;;;;;10011171;28;20049;-68
2023/02/09 13:34:35;;;;;;;16.83;13.63;;;;;;;;;;10010341;28;20687;-68
2023/02/09 13:39:34;;;;;;;16.25;13.05;;;;;;;;;;10019554;28;20054;-68
2023/02/09 13:44:30;;;;;;;17.27;13.97;;;;;;;;;;10023717;28;20064;-69
2023/02/09 13:49:26;;;;;;;21.48;15.15;;;;;;;;;;10023092;28;20120;-68
2023/02/09 13:54:19;;;;;;;26.02;14.57;;;;;;;;;;10018271;28;20054;-68
2023/02/09 13:59:16;;;;;;;17.15;13.10;;;;;;;;;;10019444;28;20038;-69
2023/02/09 14:04:14;;;;;;;18.38;13.55;;;;;;;;;;10004442;28;20047;-68
2023/02/09 14:09:13;;;;;;;19.63;15.07;;;;;;;;;;10007408;28;20137;-68
2023/02/09 14:14:13;;;;;;;19.60;14.40;;;;;;;;;;10019444;28;20423;-68
2023/02/09 14:19:27;;;;;;;15.82;12.57;;;;;;;;;;10020333;28;20050;-67
2023/02/09 14:24:28;;;;;;;21.02;14.77;;;;;;;;;;10008719;28;20054;-68
2023/02/09 14:29:27;;;;;;;15.77;13.93;;;;;;;;;;10018907;28;20128;-70
2023/02/09 14:34:23;;;;;;;17.47;14.20;;;;;;;;;;10016872;28;20682;-68
2023/02/09 14:39:21;;;;;;;17.38;14.18;;;;;;;;;;9998477;28;20039;-68
2023/02/09 14:44:19;;;;;;;17.88;14.60;;;;;;;;;;10026056;28;20129;-70
2023/02/09 14:49:14;;;;;;;17.38;14.02;;;;;;;;;;10022517;28;20060;-69
2023/02/09 14:54:26;;;;;;;22.38;13.55;;;;;;;;;;10012254;28;20133;-70
2023/02/09 14:59:20;;;;;;;19.65;14.82;;;;;;;;;;10022833;28;20054;-70
2023/02/09 15:04:14;;;;;;;25.17;16.33;;;;;;;;;;10019855;28;20047;-69
2023/02/09 15:09:08;;;;;;;17.30;13.93;;;;;;;;;;10008478;28;20053;-70
2023/02/09 15:14:02;;;;;;;14.70;13.10;;;;;;;;;;10016086;28;20053;-70
2023/02/09 15:18:56;;;;;;;39.72;27.35;;;;;;;;;;10011108;28;20069;-69
2023/02/09 15:23:50;;;;;;;40.92;36.83;;;;;;;;;;10019714;28;20050;-70
2023/02/09 15:28:43;;;;;;;43.63;39.25;;;;;;;;;;10013296;28;20080;-69
2023/02/09 15:33:37;;;;;;;28.58;24.52;;;;;;;;;;10013692;28;20053;-69
2023/02/09 15:38:31;;;;;;;21.48;14.55;;;;;;;;;;10020834;28;20056;-69
2023/02/09 15:48:37;;;;;;;28.45;20.60;;;;;;;;;;10023612;28;20062;-69
2023/02/09 15:53:31;;;;;;;19.38;15.88;;;;;;;;;;10033659;28;20100;-70
2023/02/09 15:58:47;;;;;;;25.15;17.33;;;;;;;;;;10030574;28;20496;-69
2023/02/09 16:03:40;;;;;;;21.60;17.52;;;;;;;;;;10022630;28;20053;-69
2023/02/09 16:08:34;;;;;;;22.55;17.25;;;;;;;;;;10029449;28;20054;-69
2023/02/09 16:13:29;;;;;;;23.85;16.90;;;;;;;;;;10029090;28;20050;-67
2023/02/09 16:18:21;;;;;;;19.15;17.02;;;;;;;;;;10029386;28;20057;-71
2023/02/09 16:23:16;;;;;;;21.98;17.75;;;;;;;;;;10011969;28;20157;-72
2023/02/09 16:28:13;;;;;;;24.88;16.25;;;;;;;;;;10023638;28;20503;-71
2023/02/09 16:33:08;;;;;;;37.10;26.75;;;;;;;;;;10029001;28;20107;-70
2023/02/09 16:38:02;;;;;;;44.80;30.75;;;;;;;;;;10029854;28;20046;-71
2023/02/09 16:42:58;;;;;;;84.13;50.58;;;;;;;;;;10028717;28;20454;-71
2023/02/09 16:47:53;;;;;;;119.15;70.25;;;;;;;;;;10022109;28;20137;-67
2023/02/09 16:52:50;;;;;;;31.98;22.88;;;;;;;;;;10019630;28;20057;-68
2023/02/09 16:57:44;;;;;;;32.70;27.00;;;;;;;;;;10027467;28;20128;-67
2023/02/09 17:02:54;;;;;;;28.95;21.92;;;;;;;;;;10026918;28;20058;-68
2023/02/09 17:07:50;;;;;;;25.45;18.65;;;;;;;;;;10025419;28;20054;-67
2023/02/09 17:12:46;;;;;;;30.60;20.92;;;;;;;;;;10027947;28;20071;-67
2023/02/09 17:17:40;;;;;;;33.45;22.40;;;;;;;;;;10029018;28;20049;-67
2023/02/09 17:22:34;;;;;;;35.17;20.35;;;;;;;;;;10023464;28;20061;-66
2023/02/09 17:27:27;;;;;;;26.98;20.02;;;;;;;;;;10027778;28;20045;-69
2023/02/09 17:32:21;;;;;;;42.28;26.85;;;;;;;;;;10026430;28;20081;-67
2023/02/09 17:37:15;;;;;;;50.05;32.47;;;;;;;;;;10020890;28;20046;-66
2023/02/09 17:42:19;;;;;;;42.90;27.88;;;;;;;;;;10024515;28;20137;-73
2023/02/09 17:47:17;;;;;;;39.70;30.35;;;;;;;;;;10026150;28;20546;-74
2023/02/09 17:52:15;;;;;;;38.47;27.58;;;;;;;;;;10025806;28;20061;-72
2023/02/09 17:57:13;;;;;;;36.55;27.77;;;;;;;;;;10025932;28;20049;-70
2023/02/09 18:02:15;;;;;;;39.10;25.50;;;;;;;;;;10025136;28;20411;-74
2023/02/09 18:07:09;;;;;;;31.02;23.75;;;;;;;;;;10025743;28;20056;-72
2023/02/09 18:12:11;;;;;;;29.35;23.98;;;;;;;;;;10026734;28;20080;-75
2023/02/09 18:17:06;;;;;;;38.78;27.67;;;;;;;;;;10022488;28;20100;-73
2023/02/09 18:22:01;;;;;;;37.75;29.15;;;;;;;;;;10024698;28;20091;-74
2023/02/09 18:26:54;;;;;;;43.65;28.95;;;;;;;;;;10024064;28;20502;-73
2023/02/09 18:31:48;;;;;;;36.08;28.05;;;;;;;;;;10012597;28;20054;-75
2023/02/09 18:36:41;;;;;;;38.22;27.35;;;;;;;;;;10023747;28;20056;-74
2023/02/09 18:41:34;;;;;;;40.22;28.02;;;;;;;;;;10025549;28;20042;-74
2023/02/09 18:46:28;;;;;;;39.47;29.42;;;;;;;;;;9997495;28;20054;-72
2023/02/09 18:51:21;;;;;;;34.78;26.25;;;;;;;;;;10001937;28;20422;-73
2023/02/09 18:56:18;;;;;;;34.22;26.33;;;;;;;;;;10017490;28;20042;-72
2023/02/09 19:01:13;;;;;;;33.70;25.98;;;;;;;;;;10000090;28;20078;-73
2023/02/09 19:06:11;;;;;;;38.95;31.45;;;;;;;;;;10014413;28;20116;-73
2023/02/09 19:11:04;;;;;;;43.05;31.90;;;;;;;;;;10019004;28;20058;-74
2023/02/09 19:15:58;;;;;;;42.88;34.50;;;;;;;;;;10025207;28;20054;-74
2023/02/09 19:20:54;;;;;;;48.38;36.53;;;;;;;;;;10025589;28;20046;-74
2023/02/09 19:25:48;;;;;;;50.83;37.85;;;;;;;;;;10024671;28;20076;-77
2023/02/09 19:30:41;;;;;;;45.53;33.78;;;;;;;;;;10015913;28;20039;-73
2023/02/09 19:35:35;;;;;;;50.53;33.05;;;;;;;;;;10006655;28;20053;-70
2023/02/09 19:40:34;;;;;;;48.47;34.42;;;;;;;;;;10031266;28;20459;-69
2023/02/09 19:45:35;;;;;;;57.15;40.60;;;;;;;;;;10027993;28;20450;-73
2023/02/09 19:50:27;;;;;;;;;;;;;;;;;;10007752;28;20104;-70
2023/02/09 19:55:20;;;;;;;50.72;38.63;;;;;;;;;;10028577;28;20378;-71
2023/02/09 20:00:17;;;;;;;85.95;57.05;;;;;;;;;;10014753;28;20084;-68
2023/02/09 20:05:11;;;;;;;54.22;39.20;;;;;;;;;;10012047;28;20514;-71
2023/02/09 20:10:07;;;;;;;49.67;37.20;;;;;;;;;;10010037;28;20030;-73
2023/02/09 20:14:59;;;;;;;54.58;34.63;;;;;;;;;;10009116;28;20127;-70
2023/02/09 20:19:54;;;;;;;41.08;31.10;;;;;;;;;;10009300;28;20448;-70
2023/02/09 20:24:47;;;;;;;40.42;30.80;;;;;;;;;;10014393;28;20080;-70
2023/02/09 20:29:40;;;;;;;36.83;25.17;;;;;;;;;;10012419;28;20054;-69
2023/02/09 20:34:34;;;;;;;39.33;25.70;;;;;;;;;;10015164;28;20058;-73
2023/02/09 20:39:28;;;;;;;35.90;27.38;;;;;;;;;;10007438;28;20564;-71
2023/02/09 20:49:35;;;;;;;43.88;31.60;;;;;;;;;;10010159;28;20062;-71
2023/02/09 20:54:31;;;;;;;51.35;36.38;;;;;;;;;;10013653;28;20046;-72
2023/02/09 20:59:29;;;;;;;55.03;38.63;;;;;;;;;;10015598;28;20037;-70
2023/02/09 21:04:28;;;;;;;49.85;37.78;;;;;;;;;;10014522;28;20042;-71
2023/02/09 21:09:25;;;;;;;;;;;;;;;;;;10006385;28;20487;-70
2023/02/09 21:14:19;;;;;;;43.35;28.55;;;;;;;;;;10002924;28;20032;-70
2023/02/09 21:19:23;;;;;;;42.15;26.58;;;;;;;;;;10002243;28;20042;-69
2023/02/09 21:24:16;;;;;;;36.47;28.30;;;;;;;;;;10014406;28;20048;-70
2023/02/09 21:29:10;;;;;;;31.98;23.60;;;;;;;;;;10010988;28;20066;-69
2023/02/09 21:34:03;;;;;;;27.58;23.63;;;;;;;;;;10009123;28;20046;-70
2023/02/09 21:38:57;;;;;;;29.50;23.23;;;;;;;;;;10005266;28;20133;-71
2023/02/09 21:43:51;;;;;;;33.60;24.35;;;;;;;;;;10007592;28;20458;-71
2023/02/09 21:48:45;;;;;;;32.92;26.33;;;;;;;;;;10005684;28;20065;-70
2023/02/09 21:53:40;;;;;;;32.80;24.67;;;;;;;;;;10010803;28;20056;-73
2023/02/09 21:58:33;;;;;;;33.15;23.95;;;;;;;;;;10013295;28;20046;-71
2023/02/09 22:03:26;;;;;;;31.70;23.63;;;;;;;;;;10007215;28;20049;-71
2023/02/09 22:08:19;;;;;;;31.65;23.70;;;;;;;;;;10007779;28;20049;-73
2023/02/09 22:13:13;;;;;;;35.65;22.13;;;;;;;;;;10013965;28;20085;-72
2023/02/09 22:18:08;;;;;;;26.42;21.90;;;;;;;;;;10005238;28;20046;-74
2023/02/09 22:23:01;;;;;;;28.60;21.13;;;;;;;;;;10013641;28;20057;-73
2023/02/09 22:27:54;;;;;;;30.25;21.00;;;;;;;;;;10006296;28;20054;-72
2023/02/09 22:32:48;;;;;;;32.72;21.83;;;;;;;;;;10012034;28;20557;-71
2023/02/09 22:37:43;;;;;;;32.53;23.15;;;;;;;;;;10014793;28;20070;-72
2023/02/09 22:42:36;;;;;;;30.35;21.55;;;;;;;;;;10008127;28;20475;-71
2023/02/09 22:47:31;;;;;;;35.33;24.65;;;;;;;;;;10001804;28;20061;-71
2023/02/09 22:52:25;;;;;;;30.30;21.88;;;;;;;;;;10007161;28;20389;-71
2023/02/09 22:57:18;;;;;;;28.92;20.75;;;;;;;;;;10004932;28;20137;-73
2023/02/09 23:02:11;;;;;;;33.83;23.85;;;;;;;;;;10007956;28;20046;-73
2023/02/09 23:07:06;;;;;;;31.27;23.05;;;;;;;;;;10019528;28;20053;-74
2023/02/09 23:12:00;;;;;;;34.03;25.30;;;;;;;;;;10013204;28;20054;-74
2023/02/09 23:16:54;;;;;;;27.13;23.48;;;;;;;;;;10021023;28;20141;-74
2023/02/09 23:21:50;;;;;;;30.13;21.20;;;;;;;;;;10018666;28;20054;-73
2023/02/09 23:26:43;;;;;;;26.48;21.67;;;;;;;;;;10018750;28;20050;-74
2023/02/09 23:31:37;;;;;;;26.25;18.95;;;;;;;;;;10019301;28;20116;-75
2023/02/09 23:36:33;;;;;;;33.47;21.38;;;;;;;;;;10014260;28;20492;-73
2023/02/09 23:41:27;;;;;;;24.60;19.90;;;;;;;;;;10010337;28;20078;-74
2023/02/09 23:46:23;;;;;;;29.90;22.05;;;;;;;;;;10012394;28;20066;-74
2023/02/09 23:51:23;;;;;;;28.15;20.08;;;;;;;;;;10011681;28;20513;-75
2023/02/09 23:56:17;;;;;;;30.20;20.65;;;;;;;;;;10017598;28;20462;-73
